Time;durP1;ratioP1;P1;durP2;ratioP2;P2;SDS_P1;SDS_P2;PMS_P1;PMS_P2;Temp;Humidity;BMP_temperature;BMP_pressure;BME280_temperature;BME280_humidity;BME280_pressure;Samples;Min_cycle;Max_cycle;Signal;HPM_P1;HPM_P2
2022/07/18 00:01:40;;;;;;;3.13;1.60;;;13.70;61.60;;;;;;5051247;28;20064;-49
2022/07/18 00:04:06;;;;;;;1.92;1.40;;;13.70;62.50;;;;;;5053701;28;20230;-54
2022/07/18 00:06:31;;;;;;;3.78;1.70;;;13.70;62.40;;;;;;5047694;28;20125;-48
2022/07/18 00:08:57;;;;;;;2.50;1.55;;;13.70;63.10;;;;;;5054213;28;20032;-51
2022/07/18 00:11:22;;;;;;;2.22;1.55;;;13.80;63.10;;;;;;5069548;28;20039;-52
2022/07/18 00:13:50;;;;;;;2.80;1.98;;;13.80;63.60;;;;;;5053120;28;20516;-53
2022/07/18 00:16:16;;;;;;;3.35;1.77;;;13.80;64.10;;;;;;5052108;28;20222;-54
2022/07/18 00:18:41;;;;;;;3.53;1.48;;;13.80;64.70;;;;;;5067619;28;20083;-53
2022/07/18 00:21:07;;;;;;;2.75;1.50;;;13.80;65.00;;;;;;5049868;28;20037;-49
2022/07/18 00:23:32;;;;;;;1.65;1.42;;;13.80;65.30;;;;;;5067315;28;20044;-53
2022/07/18 00:25:58;;;;;;;3.80;1.75;;;13.90;65.80;;;;;;5049950;28;20040;-52
2022/07/18 00:28:23;;;;;;;3.00;1.60;;;13.80;66.50;;;;;;5067249;28;20097;-51
2022/07/18 00:30:49;;;;;;;2.78;1.75;;;13.90;65.90;;;;;;5040487;28;20056;-54
2022/07/18 00:33:14;;;;;;;3.55;1.40;;;13.90;66.10;;;;;;5066453;28;20017;-52
2022/07/18 00:35:40;;;;;;;1.35;1.25;;;13.90;65.50;;;;;;5052503;28;20580;-55
2022/07/18 00:38:05;;;;;;;2.80;1.75;;;13.90;66.70;;;;;;5067236;28;20418;-54
2022/07/18 00:40:32;;;;;;;2.78;1.60;;;13.90;66.60;;;;;;5041178;28;20033;-54
2022/07/18 00:42:58;;;;;;;3.30;1.77;;;13.90;66.60;;;;;;5066640;28;20492;-54
2022/07/18 00:45:24;;;;;;;3.00;1.48;;;13.90;68.60;;;;;;5044760;28;20040;-54
2022/07/18 00:47:52;;;;;;;2.78;1.80;;;13.90;67.20;;;;;;5064893;28;20024;-54
2022/07/18 00:50:19;;;;;;;2.53;1.63;;;14.00;67.20;;;;;;5056220;28;20025;-46
2022/07/18 00:52:45;;;;;;;2.80;1.50;;;13.90;67.10;;;;;;5048962;28;20378;-49
2022/07/18 00:55:11;;;;;;;2.30;1.52;;;14.00;67.90;;;;;;5048990;28;20060;-51
2022/07/18 00:57:38;;;;;;;1.77;1.65;;;14.00;67.30;;;;;;5043287;28;20087;-50
2022/07/18 01:02:50;;;;;;;1.70;1.60;;;14.00;67.40;;;;;;5044772;28;20557;-54
2022/07/18 01:05:16;;;;;;;3.50;1.73;;;14.00;67.80;;;;;;5068924;28;20028;-50
2022/07/18 01:07:41;;;;;;;1.77;1.60;;;14.00;67.70;;;;;;5048331;28;20381;-49
2022/07/18 01:10:07;;;;;;;3.05;1.50;;;14.00;68.00;;;;;;5068918;28;20028;-49
2022/07/18 01:12:33;;;;;;;3.53;1.90;;;14.00;69.20;;;;;;5049385;28;20037;-51
2022/07/18 01:14:59;;;;;;;3.33;1.65;;;14.00;69.10;;;;;;5060883;28;20089;-51
2022/07/18 01:17:24;;;;;;;2.95;1.50;;;14.00;68.50;;;;;;5049529;28;20516;-52
2022/07/18 01:19:50;;;;;;;1.77;1.63;;;14.00;68.40;;;;;;5048053;28;20492;-50
2022/07/18 01:22:19;;;;;;;2.85;1.65;;;14.00;68.70;;;;;;5068149;28;20028;-48
2022/07/18 01:24:45;;;;;;;3.67;1.58;;;14.00;69.60;;;;;;5046057;28;20041;-52
2022/07/18 01:27:15;;;;;;;2.03;1.60;;;14.00;70.40;;;;;;5068205;28;20070;-53
2022/07/18 01:29:41;;;;;;;2.20;1.50;;;13.90;70.70;;;;;;5048567;28;20139;-51
2022/07/18 01:32:08;;;;;;;4.10;1.90;;;14.00;71.20;;;;;;5068975;28;20103;-52
2022/07/18 01:34:34;;;;;;;3.15;1.50;;;14.00;71.20;;;;;;5046548;28;20427;-50
2022/07/18 01:37:00;;;;;;;4.20;1.67;;;14.00;71.60;;;;;;5068216;28;20036;-54
2022/07/18 01:39:26;;;;;;;1.67;1.58;;;14.00;72.30;;;;;;5046469;28;20028;-48
2022/07/18 01:41:59;;;;;;;1.73;1.60;;;14.00;72.40;;;;;;5068052;28;20089;-52
2022/07/18 01:44:25;;;;;;;1.70;1.40;;;14.00;72.50;;;;;;5042125;28;20033;-53
2022/07/18 01:46:51;;;;;;;1.67;1.58;;;14.00;72.50;;;;;;5068110;28;20033;-52
2022/07/18 01:49:17;;;;;;;2.72;1.75;;;14.00;73.50;;;;;;5046352;28;20033;-49
2022/07/18 01:51:47;;;;;;;2.65;1.85;;;14.00;72.70;;;;;;5066720;28;20068;-51
2022/07/18 01:54:12;;;;;;;2.13;1.60;;;14.00;73.30;;;;;;5045072;28;20040;-54
2022/07/18 01:56:38;;;;;;;2.92;1.58;;;14.00;74.70;;;;;;5067845;28;20400;-48
2022/07/18 01:59:04;;;;;;;3.78;1.88;;;14.00;75.00;;;;;;5046446;28;20029;-51
2022/07/18 02:01:29;;;;;;;1.63;1.35;;;13.90;74.40;;;;;;5045934;28;20025;-50
2022/07/18 02:03:55;;;;;;;2.05;1.58;;;13.90;74.10;;;;;;5054232;28;20025;-64
2022/07/18 02:06:20;;;;;;;3.58;2.00;;;13.90;74.80;;;;;;5067465;28;20111;-62
2022/07/18 02:08:46;;;;;;;2.45;1.90;;;13.90;74.40;;;;;;5054705;28;20040;-63
2022/07/18 02:11:12;;;;;;;4.43;1.52;;;13.90;73.80;;;;;;5058411;28;20025;-62
2022/07/18 02:13:38;;;;;;;2.72;1.80;;;13.90;74.20;;;;;;5055324;28;20025;-62
2022/07/18 02:16:04;;;;;;;2.05;1.75;;;13.80;73.70;;;;;;5047592;28;20025;-63
2022/07/18 02:18:32;;;;;;;3.88;2.00;;;13.80;73.90;;;;;;5060237;28;20032;-62
2022/07/18 02:20:59;;;;;;;3.17;1.80;;;13.70;74.20;;;;;;5040589;28;20040;-64
2022/07/18 02:23:24;;;;;;;3.72;1.90;;;13.60;74.80;;;;;;5073138;28;20041;-63
2022/07/18 02:25:50;;;;;;;3.35;2.00;;;13.60;75.40;;;;;;5028720;28;20044;-62
2022/07/18 02:28:15;;;;;;;3.35;1.80;;;13.50;75.70;;;;;;5061718;28;20021;-63
2022/07/18 02:30:41;;;;;;;2.53;2.03;;;13.40;76.00;;;;;;5034282;28;20446;-62
2022/07/18 02:33:06;;;;;;;2.17;1.73;;;13.30;78.00;;;;;;5051370;28;20029;-62
2022/07/18 02:35:32;;;;;;;2.95;1.58;;;13.20;77.30;;;;;;5048234;28;20029;-62
2022/07/18 02:37:57;;;;;;;2.95;2.00;;;13.20;82.80;;;;;;5052875;28;20033;-62
2022/07/18 02:40:23;;;;;;;5.05;2.17;;;13.10;80.70;;;;;;5047927;28;20107;-62
2022/07/18 02:42:48;;;;;;;2.60;1.85;;;13.00;79.70;;;;;;5052150;28;20090;-63
2022/07/18 02:45:14;;;;;;;2.28;1.70;;;13.00;80.60;;;;;;5046448;28;20040;-63
2022/07/18 02:47:40;;;;;;;2.13;1.92;;;12.90;81.60;;;;;;5054102;28;20029;-63
2022/07/18 02:50:06;;;;;;;4.03;2.15;;;12.80;82.20;;;;;;5047877;28;20025;-63
2022/07/18 02:52:32;;;;;;;2.72;1.88;;;12.80;82.30;;;;;;5056010;28;20033;-64
2022/07/18 02:55:00;;;;;;;4.00;2.20;;;12.70;82.50;;;;;;5049206;28;20111;-62
2022/07/18 02:57:26;;;;;;;4.00;2.05;;;12.60;83.20;;;;;;5057794;28;20025;-62
2022/07/18 02:59:51;;;;;;;2.78;2.13;;;12.60;83.40;;;;;;5050019;28;20025;-63
2022/07/18 03:02:17;;;;;;;5.30;2.00;;;12.60;83.60;;;;;;5056968;28;20481;-62
2022/07/18 03:04:43;;;;;;;4.93;1.90;;;12.50;84.10;;;;;;5051116;28;20036;-63
2022/07/18 03:07:08;;;;;;;2.13;1.88;;;12.50;85.50;;;;;;5059911;28;20030;-62
2022/07/18 03:09:34;;;;;;;4.70;1.95;;;12.50;85.50;;;;;;5052779;28;20048;-63
2022/07/18 03:11:59;;;;;;;2.85;1.95;;;12.40;88.50;;;;;;5059569;28;20416;-63
2022/07/18 03:14:25;;;;;;;2.08;1.88;;;12.40;88.80;;;;;;5049401;28;20033;-63
2022/07/18 03:16:50;;;;;;;3.33;2.08;;;12.30;89.20;;;;;;5066229;28;20452;-63
2022/07/18 03:19:16;;;;;;;3.85;2.08;;;12.30;90.50;;;;;;5067273;28;20508;-62
2022/07/18 03:21:42;;;;;;;6.25;2.25;;;12.30;91.20;;;;;;5050785;28;21868;-62
2022/07/18 03:24:07;;;;;;;4.53;2.45;;;12.30;91.60;;;;;;5068497;28;20051;-62
2022/07/18 03:26:33;;;;;;;2.80;2.13;;;12.20;91.20;;;;;;5050564;28;20025;-63
2022/07/18 03:28:58;;;;;;;2.03;1.63;;;12.20;93.00;;;;;;5068134;28;20048;-62
2022/07/18 03:31:24;;;;;;;4.05;2.22;;;12.20;92.00;;;;;;5070775;28;20396;-62
2022/07/18 03:33:49;;;;;;;2.67;2.00;;;12.20;91.70;;;;;;5067661;28;20024;-62
2022/07/18 03:36:15;;;;;;;4.10;2.55;;;12.20;92.70;;;;;;5070864;28;20032;-62
2022/07/18 03:38:42;;;;;;;3.22;2.28;;;12.30;92.20;;;;;;5053915;28;20032;-62
2022/07/18 03:41:10;;;;;;;3.30;2.25;;;12.30;91.90;;;;;;5070673;28;20032;-62
2022/07/18 03:43:37;;;;;;;3.65;2.38;;;12.30;91.60;;;;;;5046924;28;20097;-63
2022/07/18 03:46:02;;;;;;;3.45;2.20;;;12.40;91.60;;;;;;5050251;28;20025;-62
2022/07/18 03:48:28;;;;;;;3.47;2.15;;;12.40;92.30;;;;;;5067200;28;20017;-62
2022/07/18 03:50:53;;;;;;;4.60;2.65;;;12.40;92.50;;;;;;5070529;28;20346;-63
2022/07/18 03:53:19;;;;;;;5.60;2.22;;;12.60;93.20;;;;;;5055685;28;20424;-62
2022/07/18 03:55:45;;;;;;;3.65;2.80;;;12.70;92.00;;;;;;5050476;28;20067;-62
2022/07/18 03:58:10;;;;;;;3.83;2.00;;;13.00;91.70;;;;;;5050777;28;20348;-62
2022/07/18 04:00:36;;;;;;;3.72;2.42;;;13.90;90.10;;;;;;5068333;28;20095;-63
2022/07/18 04:03:02;;;;;;;3.90;2.10;;;14.70;84.90;;;;;;5049931;28;20033;-63
2022/07/18 04:05:27;;;;;;;2.03;1.63;;;15.60;79.30;;;;;;5049206;28;20033;-63
2022/07/18 04:07:53;;;;;;;2.08;1.88;;;16.40;74.50;;;;;;5053165;28;20401;-63
2022/07/18 04:10:18;;;;;;;3.28;2.15;;;16.80;71.40;;;;;;5050524;28;20045;-63
2022/07/18 04:12:54;;;;;;;2.15;1.63;;;17.20;69.30;;;;;;5055222;28;20041;-63
2022/07/18 04:15:22;;;;;;;2.97;2.03;;;17.10;67.40;;;;;;5039451;28;20037;-63
2022/07/18 04:17:49;;;;;;;3.25;2.13;;;17.00;68.00;;;;;;5053967;28;20033;-63
2022/07/18 04:20:16;;;;;;;2.42;2.00;;;16.80;68.70;;;;;;5050983;28;20570;-63
2022/07/18 04:22:55;;;;;;;2.50;1.83;;;16.70;68.80;;;;;;5055698;28;20091;-63
2022/07/18 04:25:22;;;;;;;2.97;1.75;;;16.70;68.00;;;;;;5045303;28;20048;-63
2022/07/18 04:27:48;;;;;;;3.78;2.25;;;16.60;67.90;;;;;;5053036;28;20562;-64
2022/07/18 04:30:15;;;;;;;2.25;2.03;;;16.50;68.30;;;;;;5060715;28;20040;-63
2022/07/18 04:32:41;;;;;;;4.15;1.90;;;16.50;67.70;;;;;;5049139;28;20025;-63
2022/07/18 04:35:07;;;;;;;2.58;1.88;;;16.90;65.60;;;;;;5052092;28;20386;-63
2022/07/18 04:37:33;;;;;;;3.10;1.73;;;17.60;62.80;;;;;;5056036;28;20028;-63
2022/07/18 04:39:59;;;;;;;1.88;1.55;;;18.20;59.40;;;;;;5053301;28;20037;-63
2022/07/18 04:42:25;;;;;;;2.50;1.73;;;18.80;56.90;;;;;;5057335;28;20559;-63
2022/07/18 04:44:50;;;;;;;1.80;1.65;;;19.50;54.20;;;;;;5054507;28;20048;-63
2022/07/18 04:47:16;;;;;;;2.35;1.52;;;20.30;50.10;;;;;;5057857;28;20021;-63
2022/07/18 04:49:42;;;;;;;4.60;1.77;;;21.20;47.50;;;;;;5055822;28;20025;-64
2022/07/18 04:52:07;;;;;;;2.45;1.50;;;21.90;45.70;;;;;;5060047;28;20416;-63
2022/07/18 04:54:33;;;;;;;2.10;1.65;;;22.50;42.60;;;;;;5066672;28;20082;-61
2022/07/18 04:56:58;;;;;;;2.65;1.58;;;23.00;40.60;;;;;;5048987;28;20401;-61
2022/07/18 04:59:24;;;;;;;2.85;1.60;;;23.50;38.20;;;;;;5066513;28;20039;-61
2022/07/18 05:01:49;;;;;;;2.20;1.40;;;23.90;36.30;;;;;;5049708;28;20448;-61
2022/07/18 05:04:15;;;;;;;2.72;1.80;;;24.50;34.60;;;;;;5066425;28;20028;-61
2022/07/18 05:06:40;;;;;;;3.17;1.50;;;25.10;30.30;;;;;;5069106;28;20480;-61
2022/07/18 05:09:06;;;;;;;2.28;1.65;;;25.90;27.00;;;;;;5046624;28;20029;-61
2022/07/18 05:11:31;;;;;;;3.35;1.60;;;26.60;25.00;;;;;;5047812;28;20381;-61
2022/07/18 05:13:57;;;;;;;3.35;1.77;;;26.90;23.10;;;;;;5053620;28;20029;-61
2022/07/18 05:16:22;;;;;;;2.88;1.35;;;27.50;21.60;;;;;;5050217;28;20037;-61
2022/07/18 05:18:48;;;;;;;1.70;1.38;;;28.10;20.50;;;;;;5065550;28;20388;-61
2022/07/18 05:21:13;;;;;;;4.05;1.60;;;28.80;17.90;;;;;;5068702;28;20066;-61
2022/07/18 05:23:39;;;;;;;2.70;1.45;;;29.20;16.30;;;;;;5039603;28;20033;-61
2022/07/18 05:26:05;;;;;;;3.33;1.50;;;29.60;14.80;;;;;;5064421;28;20024;-60
2022/07/18 05:28:30;;;;;;;2.72;1.60;;;30.00;13.20;;;;;;5047977;28;20022;-60
2022/07/18 05:30:56;;;;;;;5.18;1.40;;;30.40;11.80;;;;;;5068487;28;20045;-61
2022/07/18 05:33:21;;;;;;;1.80;1.33;;;30.90;9.40;;;;;;5049146;28;20488;-62
2022/07/18 05:35:47;;;;;;;2.33;1.45;;;31.30;8.80;;;;;;5047273;28;20645;-62
2022/07/18 05:38:12;;;;;;;2.13;1.60;;;31.60;7.60;;;;;;5067481;28;20023;-61
2022/07/18 05:40:38;;;;;;;2.30;1.50;;;32.00;6.50;;;;;;5047045;28;20389;-62
2022/07/18 05:43:04;;;;;;;3.30;1.40;;;32.40;5.90;;;;;;5067661;28;20044;-62
2022/07/18 05:45:30;;;;;;;2.25;1.40;;;32.70;4.60;;;;;;5047069;28;20033;-61
2022/07/18 05:47:56;;;;;;;3.28;1.38;;;33.20;3.70;;;;;;5067501;28;20488;-62
2022/07/18 05:50:23;;;;;;;1.85;1.23;;;33.50;2.50;;;;;;5046892;28;20029;-62
2022/07/18 05:52:48;;;;;;;1.60;1.30;;;34.00;1.80;;;;;;5067891;28;20036;-61
2022/07/18 05:55:14;;;;;;;4.55;1.58;;;34.30;1.00;;;;;;5047069;28;20112;-61
2022/07/18 05:57:40;;;;;;;2.33;1.33;;;34.60;1.00;;;;;;5067521;28;20503;-61
2022/07/18 06:00:08;;;;;;;1.80;1.40;;;34.90;1.00;;;;;;5046908;28;20025;-60
2022/07/18 06:02:33;;;;;;;3.17;1.50;;;35.30;1.00;;;;;;5067593;28;20431;-62
2022/07/18 06:04:59;;;;;;;3.33;1.60;;;35.60;1.00;;;;;;5045246;28;20029;-62
2022/07/18 06:07:25;;;;;;;2.08;1.80;;;35.90;1.00;;;;;;5067244;28;20028;-61
2022/07/18 06:09:51;;;;;;;2.85;1.40;;;36.30;1.00;;;;;;5056624;28;20035;-62
2022/07/18 06:12:16;;;;;;;2.63;1.70;;;36.70;1.00;;;;;;5048432;28;20032;-61
2022/07/18 06:14:42;;;;;;;2.53;1.42;;;37.00;1.00;;;;;;5059167;28;20024;-62
2022/07/18 06:17:07;;;;;;;2.17;1.27;;;37.30;1.00;;;;;;5048520;28;20029;-61
2022/07/18 06:19:33;;;;;;;1.83;1.45;;;37.60;1.00;;;;;;5065176;28;20078;-61
2022/07/18 06:21:59;;;;;;;5.28;1.45;;;37.80;1.00;;;;;;5067964;28;20039;-62
2022/07/18 06:24:25;;;;;;;4.10;1.58;;;37.70;1.00;;;;;;5052433;28;20038;-61
2022/07/18 06:26:50;;;;;;;1.40;1.25;;;37.70;1.00;;;;;;5068134;28;20107;-62
2022/07/18 06:29:16;;;;;;;2.13;1.55;;;37.80;1.00;;;;;;5050987;28;20395;-61
2022/07/18 06:31:43;;;;;;;1.92;1.30;;;37.90;1.00;;;;;;5067919;28;20112;-62
2022/07/18 06:34:08;;;;;;;3.63;1.70;;;38.10;1.00;;;;;;5049810;28;20090;-62
2022/07/18 06:36:33;;;;;;;1.50;1.20;;;38.20;1.00;;;;;;5067963;28;20426;-62
2022/07/18 06:38:59;;;;;;;2.30;1.40;;;38.60;1.00;;;;;;5048413;28;20032;-62
2022/07/18 06:41:25;;;;;;;3.42;1.55;;;38.90;1.00;;;;;;5067726;28;20035;-62
2022/07/18 06:43:50;;;;;;;1.83;1.20;;;39.30;1.00;;;;;;5047032;28;20033;-62
2022/07/18 06:46:16;;;;;;;2.17;1.27;;;39.50;1.00;;;;;;5067698;28;20028;-62
2022/07/18 06:48:41;;;;;;;3.95;1.30;;;39.60;1.00;;;;;;5048298;28;20129;-62
2022/07/18 06:51:08;;;;;;;1.60;1.20;;;40.00;1.00;;;;;;5067954;28;20146;-62
2022/07/18 06:53:33;;;;;;;2.00;1.40;;;40.60;1.00;;;;;;5051836;28;20405;-62
2022/07/18 06:55:59;;;;;;;1.00;0.90;;;40.90;1.00;;;;;;5050899;28;20603;-62
2022/07/18 06:58:25;;;;;;;1.23;1.13;;;41.10;1.00;;;;;;5070700;28;20053;-62
2022/07/18 07:00:51;;;;;;;2.10;1.40;;;41.30;1.00;;;;;;5050215;28;20045;-62
2022/07/18 07:03:17;;;;;;;1.48;1.10;;;41.40;1.00;;;;;;5070902;28;20376;-62
2022/07/18 07:05:42;;;;;;;1.95;0.98;;;41.40;1.00;;;;;;5050006;28;20036;-62
2022/07/18 07:08:08;;;;;;;2.75;1.23;;;41.80;1.00;;;;;;5070510;28;20043;-62
2022/07/18 07:10:33;;;;;;;2.17;1.13;;;42.20;1.00;;;;;;5049943;28;20048;-62
2022/07/18 07:12:59;;;;;;;2.83;1.00;;;42.20;1.00;;;;;;5069466;28;20029;-61
2022/07/18 07:15:24;;;;;;;3.25;1.25;;;42.20;1.00;;;;;;5046158;28;20116;-62
2022/07/18 07:17:51;;;;;;;10.85;1.48;;;42.20;1.00;;;;;;5070279;28;20029;-62
2022/07/18 07:20:19;;;;;;;3.72;1.17;;;42.60;1.00;;;;;;5050146;28;20043;-62
2022/07/18 07:22:47;;;;;;;3.28;1.45;;;43.00;1.00;;;;;;5070710;28;20024;-62
2022/07/18 07:25:14;;;;;;;2.67;1.10;;;43.20;1.00;;;;;;5060196;28;20094;-62
2022/07/18 07:27:40;;;;;;;1.60;1.00;;;43.40;1.00;;;;;;5049909;28;20103;-62
2022/07/18 07:30:06;;;;;;;3.97;1.30;;;43.30;1.00;;;;;;5056263;28;20064;-61
2022/07/18 07:32:36;;;;;;;2.72;1.20;;;43.40;1.00;;;;;;5070107;28;20032;-62
2022/07/18 07:35:03;;;;;;;3.63;1.17;;;43.30;1.00;;;;;;5042845;28;20107;-62
2022/07/18 07:37:29;;;;;;;1.42;0.95;;;43.30;1.00;;;;;;5050729;28;20512;-62
2022/07/18 07:39:55;;;;;;;2.35;1.08;;;43.50;1.00;;;;;;5056882;28;20029;-62
2022/07/18 07:42:21;;;;;;;2.70;1.20;;;43.60;1.00;;;;;;5045590;28;20305;-62
2022/07/18 07:44:46;;;;;;;1.27;0.85;;;43.50;1.00;;;;;;5058888;28;20108;-62
2022/07/18 07:47:12;;;;;;;1.63;1.13;;;43.80;1.00;;;;;;5031871;28;20040;-62
2022/07/18 07:49:37;;;;;;;1.85;1.08;;;44.00;1.00;;;;;;5036517;28;20543;-62
2022/07/18 07:52:03;;;;;;;1.90;0.98;;;44.20;1.00;;;;;;5030806;28;20719;-62
2022/07/18 07:54:28;;;;;;;1.35;0.95;;;44.20;1.00;;;;;;5057254;28;20037;-62
2022/07/18 07:56:53;;;;;;;2.70;1.00;;;44.30;1.00;;;;;;5050842;28;20068;-62
2022/07/18 07:59:19;;;;;;;1.10;0.90;;;44.10;1.00;;;;;;5065433;28;20506;-62
2022/07/18 08:01:44;;;;;;;1.75;1.00;;;44.10;1.00;;;;;;5048300;28;20037;-62
2022/07/18 08:04:10;;;;;;;5.93;1.65;;;44.20;1.00;;;;;;5047364;28;20025;-62
2022/07/18 08:06:35;;;;;;;4.80;1.50;;;44.00;1.00;;;;;;5038521;28;20021;-64
2022/07/18 08:09:01;;;;;;;1.83;1.00;;;44.00;1.00;;;;;;5048715;28;20032;-48
2022/07/18 08:11:26;;;;;;;1.70;1.02;;;44.10;1.00;;;;;;5038359;28;20579;-54
2022/07/18 08:13:53;;;;;;;1.65;1.20;;;44.10;1.00;;;;;;5055636;28;20029;-54
2022/07/18 08:16:19;;;;;;;3.67;1.27;;;43.90;1.00;;;;;;5047953;28;20111;-50
2022/07/18 08:18:44;;;;;;;1.10;0.90;;;43.70;1.00;;;;;;5054928;28;20171;-51
2022/07/18 08:21:10;;;;;;;2.03;1.25;;;43.50;1.00;;;;;;5050006;28;20068;-49
2022/07/18 08:23:36;;;;;;;2.22;1.10;;;43.00;1.00;;;;;;5033721;28;20041;-50
2022/07/18 08:26:02;;;;;;;1.50;1.20;;;42.50;1.00;;;;;;5035987;28;20037;-54
2022/07/18 08:28:27;;;;;;;1.88;1.20;;;42.30;1.00;;;;;;5055928;28;20437;-54
2022/07/18 08:30:53;;;;;;;3.42;1.20;;;41.90;1.00;;;;;;5052824;28;20116;-54
2022/07/18 08:33:18;;;;;;;4.15;1.95;;;41.90;1.00;;;;;;5049856;28;20029;-54
2022/07/18 08:35:44;;;;;;;1.55;1.30;;;41.70;1.00;;;;;;5054008;28;20037;-55
2022/07/18 08:38:09;;;;;;;2.83;1.50;;;41.60;1.00;;;;;;5037671;28;20064;-51
2022/07/18 08:40:37;;;;;;;2.40;1.38;;;41.20;1.00;;;;;;5038707;28;20477;-48
2022/07/18 08:43:02;;;;;;;4.85;1.60;;;40.50;1.00;;;;;;5038829;28;20544;-48
2022/07/18 08:45:28;;;;;;;3.67;1.95;;;40.00;1.00;;;;;;5053724;28;20057;-51
2022/07/18 08:47:53;;;;;;;2.78;2.13;;;39.40;1.00;;;;;;5039413;28;20029;-49
2022/07/18 08:50:19;;;;;;;2.50;1.70;;;39.30;1.00;;;;;;5042689;28;20033;-52
2022/07/18 08:52:45;;;;;;;2.30;1.85;;;39.20;1.00;;;;;;5046692;28;20024;-52
2022/07/18 08:55:12;;;;;;;2.50;1.70;;;38.80;1.00;;;;;;5042851;28;20033;-53
2022/07/18 08:57:37;;;;;;;3.22;1.90;;;38.60;1.00;;;;;;5055690;28;20405;-48
2022/07/18 09:00:08;;;;;;;4.43;2.13;;;38.30;1.00;;;;;;5050058;28;20032;-48
2022/07/18 09:02:34;;;;;;;2.60;2.40;;;37.60;1.00;;;;;;5033156;28;20021;-50
2022/07/18 09:05:04;;;;;;;2.53;2.22;;;36.80;1.00;;;;;;5048316;28;20029;-50
2022/07/18 09:07:32;;;;;;;6.72;2.58;;;36.50;1.00;;;;;;5044362;28;20029;-49
2022/07/18 09:09:59;;;;;;;5.03;2.38;;;36.20;1.00;;;;;;5060765;28;20029;-48
2022/07/18 09:12:32;;;;;;;2.67;2.45;;;35.90;1.00;;;;;;5042914;28;20040;-51
2022/07/18 09:15:08;;;;;;;3.10;2.10;;;35.80;1.00;;;;;;5044377;28;20132;-50
2022/07/18 09:17:34;;;;;;;2.50;1.70;;;35.50;1.00;;;;;;5052714;28;20423;-51
2022/07/18 09:20:05;;;;;;;2.72;1.88;;;35.20;1.00;;;;;;5066265;28;20097;-48
2022/07/18 09:22:33;;;;;;;3.35;2.38;;;34.90;1.00;;;;;;5057657;28;20083;-51
2022/07/18 09:25:11;;;;;;;2.25;2.00;;;34.70;1.00;;;;;;5041207;28;20038;-50
2022/07/18 09:27:40;;;;;;;6.03;2.50;;;34.40;1.00;;;;;;5035339;28;20021;-51
2022/07/18 09:30:10;;;;;;;3.78;2.33;;;34.10;1.00;;;;;;5047974;28;20045;-51
2022/07/18 09:32:37;;;;;;;4.80;2.78;;;34.10;1.00;;;;;;5041596;28;20017;-51
2022/07/18 09:35:06;;;;;;;3.00;2.35;;;33.90;1.00;;;;;;5037119;28;20037;-53
2022/07/18 09:37:33;;;;;;;3.15;2.25;;;33.90;1.00;;;;;;5043254;28;20210;-51
2022/07/18 09:40:19;;;;;;;3.53;2.05;;;34.00;1.00;;;;;;5041502;28;20207;-47
2022/07/18 09:42:55;;;;;;;4.25;1.80;;;33.90;1.00;;;;;;5057931;28;20171;-53
2022/07/18 09:45:30;;;;;;;2.78;2.30;;;33.80;1.00;;;;;;5037817;28;20024;-47
2022/07/18 09:48:08;;;;;;;3.03;2.00;;;33.60;1.00;;;;;;5039113;28;20057;-49
2022/07/18 09:50:36;;;;;;;5.72;2.50;;;33.70;1.00;;;;;;5042640;28;20057;-47
2022/07/18 09:53:12;;;;;;;5.43;2.55;;;33.50;1.00;;;;;;5047761;28;20091;-51
2022/07/18 09:55:43;;;;;;;3.78;2.38;;;33.60;1.00;;;;;;5028347;28;20037;-48
2022/07/18 09:58:10;;;;;;;3.65;2.35;;;33.50;1.00;;;;;;5042935;28;20028;-50
2022/07/18 10:00:37;;;;;;;3.30;2.20;;;33.50;1.00;;;;;;5063555;28;20111;-49
2022/07/18 10:03:05;;;;;;;4.32;2.40;;;33.50;1.00;;;;;;5041551;28;20401;-51
2022/07/18 10:05:33;;;;;;;3.17;2.05;;;33.60;1.00;;;;;;5030537;28;20751;-49
2022/07/18 10:08:04;;;;;;;3.95;2.30;;;33.60;1.00;;;;;;5063314;28;20504;-49
2022/07/18 10:10:31;;;;;;;3.20;2.25;;;33.40;1.00;;;;;;5034809;28;20059;-50
2022/07/18 10:12:58;;;;;;;4.80;2.90;;;33.10;1.00;;;;;;5064456;28;20040;-53
2022/07/18 10:15:27;;;;;;;3.97;2.20;;;32.70;1.00;;;;;;5033867;28;20029;-49
2022/07/18 10:17:52;;;;;;;5.97;2.15;;;32.60;1.00;;;;;;5065526;28;20132;-52
2022/07/18 10:20:26;;;;;;;4.47;2.50;;;32.50;1.00;;;;;;5037157;28;20112;-51
2022/07/18 10:22:56;;;;;;;4.90;2.45;;;32.40;1.00;;;;;;5032524;28;20103;-54
2022/07/18 10:25:25;;;;;;;4.18;2.13;;;32.30;1.00;;;;;;5029662;28;20068;-52
2022/07/18 10:27:52;;;;;;;2.95;2.20;;;32.10;1.00;;;;;;5035062;28;20064;-54
2022/07/18 10:30:33;;;;;;;3.40;2.50;;;32.10;1.00;;;;;;5048037;28;20036;-50
2022/07/18 10:32:59;;;;;;;6.60;2.78;;;32.00;1.00;;;;;;5033228;28;20039;-53
2022/07/18 10:36:00;;;;;;;5.97;3.05;;;31.60;1.00;;;;;;5066217;28;20090;-47
2022/07/18 10:38:26;;;;;;;2.92;2.38;;;31.50;1.00;;;;;;5049434;28;20116;-46
2022/07/18 10:41:13;;;;;;;2.72;2.15;;;31.50;1.00;;;;;;5066515;28;20051;-46
2022/07/18 10:43:40;;;;;;;3.28;2.40;;;31.50;1.00;;;;;;5029481;28;20053;-47
2022/07/18 10:46:08;;;;;;;4.53;2.75;;;31.60;1.00;;;;;;5040996;28;20170;-47
2022/07/18 10:48:35;;;;;;;3.03;2.30;;;31.70;1.00;;;;;;5062121;28;20167;-48
2022/07/18 10:51:27;;;;;;;3.97;2.50;;;31.80;1.00;;;;;;5039079;28;20021;-51
2022/07/18 10:53:57;;;;;;;3.97;2.42;;;31.80;1.00;;;;;;5040734;28;20064;-46
2022/07/18 10:56:28;;;;;;;4.75;2.47;;;31.90;1.00;;;;;;5047248;28;20061;-47
2022/07/18 10:58:58;;;;;;;3.00;2.00;;;31.90;1.00;;;;;;5066152;28;20035;-47
2022/07/18 11:01:25;;;;;;;3.25;2.40;;;31.90;1.00;;;;;;5047777;28;20151;-46
2022/07/18 11:04:32;;;;;;;3.17;2.25;;;31.80;1.00;;;;;;5050233;28;20044;-51
2022/07/18 11:07:10;;;;;;;6.28;2.17;;;31.90;1.00;;;;;;5027491;28;20029;-54
2022/07/18 11:09:39;;;;;;;3.90;2.00;;;32.10;1.00;;;;;;5032713;28;20444;-47
2022/07/18 11:12:24;;;;;;;4.75;2.40;;;32.20;1.00;;;;;;5029370;28;20521;-48
2022/07/18 11:15:00;;;;;;;;;;;32.40;1.00;;;;;;5059327;28;20039;-49
2022/07/18 11:17:51;;;;;;;2.63;2.13;;;32.40;1.00;;;;;;5039276;28;20084;-48
2022/07/18 11:20:38;;;;;;;2.58;2.00;;;32.40;1.00;;;;;;5037221;28;20490;-46
2022/07/18 11:23:19;;;;;;;3.50;1.80;;;32.40;1.00;;;;;;5031782;28;20026;-46
2022/07/18 11:25:46;;;;;;;2.50;1.80;;;32.50;1.00;;;;;;5029427;28;20031;-51
2022/07/18 11:28:12;;;;;;;3.45;2.10;;;32.50;1.00;;;;;;5059854;28;20029;-45
2022/07/18 11:30:38;;;;;;;3.13;2.20;;;32.50;1.00;;;;;;5046392;28;20417;-45
2022/07/18 11:33:04;;;;;;;4.93;2.10;;;32.40;1.00;;;;;;5032732;28;20052;-45
2022/07/18 11:35:30;;;;;;;3.38;2.22;;;32.40;1.00;;;;;;5054439;28;20134;-50
2022/07/18 11:37:55;;;;;;;3.17;2.20;;;32.30;1.00;;;;;;5035372;28;20159;-49
2022/07/18 11:40:22;;;;;;;2.85;2.40;;;32.30;1.00;;;;;;5057851;28;20473;-46
2022/07/18 11:42:49;;;;;;;3.70;2.28;;;32.00;1.00;;;;;;5048331;28;20396;-50
2022/07/18 11:45:16;;;;;;;4.88;2.53;;;31.80;1.00;;;;;;5052678;28;20024;-49
2022/07/18 11:47:52;;;;;;;4.00;2.15;;;31.80;1.00;;;;;;5060083;28;20028;-47
2022/07/18 11:50:35;;;;;;;4.47;2.22;;;31.80;1.00;;;;;;5035876;28;20094;-54
2022/07/18 11:53:01;;;;;;;6.38;2.70;;;31.70;1.00;;;;;;5029429;28;20026;-48
2022/07/18 11:55:37;;;;;;;2.55;2.35;;;31.70;1.00;;;;;;5046172;28;20562;-52
2022/07/18 11:58:14;;;;;;;5.10;2.65;;;31.60;1.00;;;;;;5028064;28;20022;-52
2022/07/18 12:00:40;;;;;;;6.22;2.50;;;31.50;1.00;;;;;;5053886;28;20025;-50
2022/07/18 12:03:07;;;;;;;4.30;2.33;;;31.30;1.00;;;;;;5039531;28;20421;-52
2022/07/18 12:05:35;;;;;;;2.45;2.10;;;31.10;1.00;;;;;;5049257;28;20518;-49
2022/07/18 12:08:21;;;;;;;2.65;2.30;;;30.90;1.00;;;;;;5041043;28;20417;-52
2022/07/18 12:11:05;;;;;;;2.53;2.13;;;30.80;1.00;;;;;;5040760;28;20377;-56
2022/07/18 12:13:50;;;;;;;3.22;1.80;;;30.70;1.00;;;;;;5057265;28;20025;-52
2022/07/18 12:16:29;;;;;;;2.08;1.60;;;30.70;1.00;;;;;;5036262;28;20072;-53
2022/07/18 12:19:08;;;;;;;2.10;1.50;;;30.60;1.00;;;;;;5027530;28;20068;-54
2022/07/18 12:21:48;;;;;;;1.63;1.48;;;30.60;1.00;;;;;;5033712;28;20558;-54
2022/07/18 12:24:46;;;;;;;2.47;1.92;;;30.70;1.00;;;;;;5027133;28;20302;-54
2022/07/18 12:27:24;;;;;;;2.65;1.98;;;30.50;1.00;;;;;;5025503;28;20052;-48
2022/07/18 12:30:04;;;;;;;3.25;2.00;;;30.30;1.00;;;;;;5052232;28;20117;-51
2022/07/18 12:32:46;;;;;;;3.20;2.35;;;30.30;1.00;;;;;;5031410;28;20624;-50
2022/07/18 12:35:20;;;;;;;2.80;2.10;;;30.10;1.00;;;;;;5042141;28;20033;-49
2022/07/18 12:37:57;;;;;;;1.92;1.70;;;30.10;1.00;;;;;;5049883;28;20040;-54
2022/07/18 12:40:25;;;;;;;2.30;1.70;;;30.10;1.00;;;;;;5049561;28;20032;-47
2022/07/18 12:43:03;;;;;;;4.38;2.35;;;30.20;1.00;;;;;;5036428;28;20039;-49
2022/07/18 12:45:28;;;;;;;3.97;2.65;;;30.20;1.00;;;;;;5040480;28;20029;-53
2022/07/18 12:47:53;;;;;;;2.97;1.80;;;30.30;1.00;;;;;;5059323;28;20420;-52
2022/07/18 12:50:19;;;;;;;3.03;1.98;;;30.30;1.00;;;;;;5057711;28;20087;-50
2022/07/18 12:52:44;;;;;;;3.97;1.90;;;30.40;1.00;;;;;;5034311;28;20823;-50
2022/07/18 12:55:10;;;;;;;2.70;1.92;;;30.70;1.00;;;;;;5046149;28;20089;-49
2022/07/18 12:57:35;;;;;;;2.65;1.52;;;30.80;1.00;;;;;;5067149;28;20029;-52
2022/07/18 13:00:02;;;;;;;2.20;1.80;;;31.10;1.00;;;;;;5041664;28;20240;-53